createdAt,value
2018-11-06T00:00:16.029Z,34.47
2018-11-06T00:00:51.704Z,34.83
2018-11-06T00:01:26.142Z,35.60
2018-11-06T00:02:00.492Z,35.43
2018-11-06T00:02:34.884Z,36.37
2018-11-06T00:03:14.577Z,35.97
2018-11-06T00:03:53.106Z,35.60
2018-11-06T00:04:32.683Z,36.57
2018-11-06T00:05:15.136Z,35.97
2018-11-06T00:05:49.629Z,34.50
2018-11-06T00:06:23.996Z,34.97
2018-11-06T00:06:58.366Z,34.93
2018-11-06T00:07:32.724Z,34.63
2018-11-06T00:08:07.076Z,36.20
2018-11-06T00:08:41.651Z,35.97
2018-11-06T00:09:16.095Z,36.90
2018-11-06T00:09:50.668Z,35.77
2018-11-06T00:10:25.079Z,36.20
2018-11-06T00:10:59.443Z,37.33
2018-11-06T00:11:33.804Z,37.40
2018-11-06T00:12:08.249Z,35.73
2018-11-06T00:12:42.762Z,35.97
2018-11-06T00:13:17.180Z,37.17
2018-11-06T00:13:51.547Z,35.03
2018-11-06T00:14:25.993Z,35.57
2018-11-06T00:15:01.507Z,36.13
2018-11-06T00:15:35.844Z,36.70
2018-11-06T00:16:10.536Z,36.10
2018-11-06T00:16:44.933Z,35.53
2018-11-06T00:17:19.321Z,37.17
2018-11-06T00:17:54.328Z,36.33
2018-11-06T00:18:28.697Z,37.33
2018-11-06T00:19:03.052Z,35.00
2018-11-06T00:19:37.473Z,37.80
2018-11-06T00:20:13.044Z,37.27
2018-11-06T00:20:47.450Z,36.73
2018-11-06T00:21:21.832Z,35.50
2018-11-06T00:21:56.211Z,36.33
2018-11-06T00:22:30.674Z,35.43
2018-11-06T00:23:05.103Z,34.77
2018-11-06T00:23:39.931Z,36.83
2018-11-06T00:24:14.380Z,35.60
2018-11-06T00:24:48.731Z,36.33
2018-11-06T00:25:23.080Z,36.00
2018-11-06T00:25:57.486Z,37.00
2018-11-06T00:26:31.819Z,35.97
2018-11-06T00:27:06.788Z,36.77
2018-11-06T00:27:41.500Z,34.40
2018-11-06T00:28:15.893Z,35.23
2018-11-06T00:28:50.291Z,36.57
2018-11-06T00:29:25.592Z,36.57
2018-11-06T00:29:59.945Z,36.03
2018-11-06T00:30:34.297Z,36.67
2018-11-06T00:31:08.725Z,36.63
2018-11-06T00:31:43.203Z,34.50
2018-11-06T00:32:17.597Z,36.70
2018-11-06T00:32:52.345Z,36.00
2018-11-06T00:33:26.714Z,35.97
2018-11-06T00:34:01.128Z,36.30
2018-11-06T00:34:35.679Z,36.93
2018-11-06T00:35:14.749Z,36.40
2018-11-06T00:35:49.112Z,34.17
2018-11-06T00:36:23.536Z,34.10
2018-11-06T00:36:57.899Z,35.00
2018-11-06T00:37:32.269Z,35.63
2018-11-06T00:38:06.996Z,36.40
2018-11-06T00:38:41.899Z,34.47
2018-11-06T00:39:16.316Z,35.70
2018-11-06T00:39:50.761Z,35.30
2018-11-06T00:40:25.104Z,34.13
2018-11-06T00:40:59.486Z,34.87
2018-11-06T00:41:33.867Z,35.53
2018-11-06T00:42:08.297Z,36.73
2018-11-06T00:42:43.042Z,35.40
2018-11-06T00:43:17.401Z,35.03
2018-11-06T00:43:51.765Z,33.97
2018-11-06T00:44:26.227Z,35.80
2018-11-06T00:45:00.654Z,34.60
2018-11-06T00:45:35.123Z,35.10
2018-11-06T00:46:09.778Z,34.63
2018-11-06T00:46:44.214Z,34.73
2018-11-06T00:47:18.652Z,34.33
2018-11-06T00:47:52.993Z,35.17
2018-11-06T00:48:27.363Z,32.67
2018-11-06T00:49:01.764Z,34.67
2018-11-06T00:49:36.140Z,34.20
2018-11-06T00:50:12.177Z,34.57
2018-11-06T00:50:46.626Z,33.57
2018-11-06T00:51:21.192Z,35.40
2018-11-06T00:51:55.579Z,33.83
2018-11-06T00:52:29.967Z,34.27
2018-11-06T00:53:04.416Z,34.13
2018-11-06T00:53:39.087Z,35.20
2018-11-06T00:54:13.481Z,35.63
2018-11-06T00:54:48.044Z,35.43
2018-11-06T00:55:22.404Z,34.30
2018-11-06T00:55:56.784Z,33.03
2018-11-06T00:56:31.180Z,33.83
2018-11-06T00:57:05.803Z,34.43
2018-11-06T00:57:41.894Z,33.43
2018-11-06T00:58:16.322Z,33.03
2018-11-06T00:58:50.908Z,32.70
2018-11-06T00:59:25.255Z,33.23
2018-11-06T00:59:59.679Z,32.53
2018-11-06T01:00:34.052Z,34.00
2018-11-06T01:01:08.528Z,34.50
2018-11-06T01:01:43.150Z,35.43
2018-11-06T01:02:17.608Z,31.40
2018-11-06T01:02:52.003Z,33.10
2018-11-06T01:04:31.343Z,33.13
2018-11-06T01:05:06.823Z,30.47
2018-11-06T01:05:41.462Z,31.97
2018-11-06T01:06:15.916Z,30.97
2018-11-06T01:06:50.295Z,32.40
2018-11-06T01:07:25.295Z,32.60
2018-11-06T01:07:59.763Z,31.33
2018-11-06T01:08:34.205Z,33.43
2018-11-06T01:09:11.485Z,33.60
2018-11-06T01:09:45.927Z,32.27
2018-11-06T01:10:20.500Z,32.20
2018-11-06T01:10:54.971Z,33.27
2018-11-06T01:11:29.314Z,31.43
2018-11-06T01:12:03.672Z,31.73
2018-11-06T01:12:38.764Z,32.97
2018-11-06T01:13:13.250Z,33.03
2018-11-06T01:13:47.631Z,33.97
2018-11-06T01:14:22.021Z,32.80
2018-11-06T01:14:56.416Z,33.40
2018-11-06T01:15:30.883Z,32.17
2018-11-06T01:16:06.487Z,32.03
2018-11-06T01:16:41.740Z,30.80
2018-11-06T01:17:16.071Z,30.90
2018-11-06T01:17:50.406Z,31.30
2018-11-06T01:18:24.848Z,30.03
2018-11-06T01:18:59.176Z,32.03
2018-11-06T01:19:33.526Z,30.73
2018-11-06T01:20:10.398Z,32.50
2018-11-06T01:20:44.780Z,32.03
2018-11-06T01:21:19.257Z,30.90
2018-11-06T01:21:53.583Z,31.57
2018-11-06T01:22:29.944Z,31.20
2018-11-06T01:23:04.265Z,31.13
2018-11-06T01:23:38.681Z,30.73
2018-11-06T01:24:13.044Z,32.07
2018-11-06T01:24:47.420Z,32.20
2018-11-06T01:25:21.906Z,31.63
2018-11-06T01:25:56.230Z,34.07
2018-11-06T01:26:30.716Z,32.57
2018-11-06T01:27:06.552Z,31.87
2018-11-06T01:27:41.029Z,30.87
2018-11-06T01:28:15.365Z,32.53
2018-11-06T01:28:49.707Z,33.63
2018-11-06T01:29:24.056Z,32.33
2018-11-06T01:29:58.436Z,32.30
2018-11-06T01:30:32.777Z,31.20
2018-11-06T01:31:07.134Z,32.77
2018-11-06T01:31:41.544Z,31.93
2018-11-06T01:32:15.867Z,31.10
2018-11-06T01:32:50.217Z,31.47
2018-11-06T01:33:24.576Z,30.30
2018-11-06T01:33:58.953Z,30.63
2018-11-06T01:34:33.288Z,32.67
2018-11-06T01:35:09.482Z,31.70
2018-11-06T01:35:43.899Z,31.77
2018-11-06T01:36:18.284Z,32.83
2018-11-06T01:36:52.647Z,31.97
2018-11-06T01:37:26.998Z,31.43
2018-11-06T01:38:01.356Z,31.63
2018-11-06T01:38:35.696Z,31.30
2018-11-06T01:39:10.808Z,32.40
2018-11-06T01:39:45.322Z,32.27
2018-11-06T01:40:19.696Z,31.27
2018-11-06T01:40:54.047Z,32.43
2018-11-06T01:41:28.416Z,30.80
2018-11-06T01:42:02.772Z,31.33
2018-11-06T01:42:37.127Z,31.63
2018-11-06T01:43:11.612Z,30.33
2018-11-06T01:43:46.007Z,31.53
2018-11-06T01:44:20.355Z,30.87
2018-11-06T01:44:54.721Z,30.70
2018-11-06T01:45:29.097Z,31.27
2018-11-06T01:46:03.460Z,30.20
2018-11-06T01:46:38.025Z,31.37
2018-11-06T01:47:12.473Z,31.37
2018-11-06T01:47:46.839Z,30.37
2018-11-06T01:48:21.208Z,31.50
2018-11-06T01:48:55.558Z,31.77
2018-11-06T01:49:29.891Z,29.83
2018-11-06T01:50:04.621Z,32.20
2018-11-06T01:50:39.041Z,31.77
2018-11-06T01:51:13.465Z,31.80
2018-11-06T01:51:47.833Z,32.37
2018-11-06T01:52:22.197Z,30.30
2018-11-06T01:52:56.570Z,31.40
2018-11-06T01:53:30.948Z,30.17
2018-11-06T01:54:05.349Z,29.53
2018-11-06T01:54:39.724Z,31.27
2018-11-06T01:55:14.170Z,32.33
2018-11-06T01:55:48.788Z,32.00
2018-11-06T01:56:23.287Z,32.80
2018-11-06T01:56:57.675Z,31.87
2018-11-06T01:57:32.101Z,33.13
2018-11-06T01:58:06.839Z,32.87
2018-11-06T01:58:41.216Z,31.37
2018-11-06T01:59:15.701Z,32.60
2018-11-06T01:59:50.422Z,32.47
2018-11-06T02:00:24.816Z,32.87
2018-11-06T02:00:59.198Z,31.00
2018-11-06T02:01:33.517Z,32.83
2018-11-06T02:02:07.905Z,32.57
2018-11-06T02:02:42.519Z,32.47
2018-11-06T02:03:16.888Z,33.67
2018-11-06T02:03:51.227Z,31.80
2018-11-06T02:04:25.960Z,33.23
2018-11-06T02:05:00.311Z,32.17
2018-11-06T02:05:34.672Z,32.37
2018-11-06T02:06:09.039Z,32.53
2018-11-06T02:06:43.453Z,33.60
2018-11-06T02:07:17.788Z,35.03
2018-11-06T02:07:52.123Z,33.73
2018-11-06T02:08:26.908Z,33.23
2018-11-06T02:09:01.272Z,31.70
2018-11-06T02:09:35.619Z,32.73
2018-11-06T02:10:11.459Z,32.87
2018-11-06T02:10:45.846Z,32.37
2018-11-06T02:11:20.221Z,31.83
2018-11-06T02:11:54.571Z,34.27
2018-11-06T02:12:28.915Z,31.87
2018-11-06T02:13:03.260Z,34.57
2018-11-06T02:13:37.629Z,33.93
2018-11-06T02:14:12.052Z,33.73
2018-11-06T02:14:46.464Z,33.83
2018-11-06T02:15:20.868Z,34.30
2018-11-06T02:15:55.248Z,33.43
2018-11-06T02:16:29.628Z,32.93
2018-11-06T02:17:04.369Z,33.07
2018-11-06T02:17:39.827Z,33.57
2018-11-06T02:18:14.250Z,33.00
2018-11-06T02:18:48.640Z,30.73
2018-11-06T02:19:23.036Z,32.60
2018-11-06T02:19:57.432Z,31.30
2018-11-06T02:20:31.792Z,32.73
2018-11-06T02:21:07.026Z,32.67
2018-11-06T02:21:41.387Z,31.73
2018-11-06T02:22:15.758Z,33.00
2018-11-06T02:23:52.904Z,32.27
2018-11-06T02:24:27.288Z,28.17
2018-11-06T02:25:01.652Z,31.60
2018-11-06T02:25:36.008Z,31.60
2018-11-06T02:26:10.445Z,31.33
2018-11-06T02:26:44.796Z,31.10
2018-11-06T02:27:19.143Z,30.43
2018-11-06T02:27:53.487Z,31.03
2018-11-06T02:28:28.054Z,30.37
2018-11-06T02:29:02.437Z,30.67
2018-11-06T02:29:36.768Z,30.23
2018-11-06T02:30:13.480Z,31.63
2018-11-06T02:30:47.830Z,31.23
2018-11-06T02:31:22.185Z,30.40
2018-11-06T02:31:56.572Z,31.13
2018-11-06T02:32:31.012Z,33.00
2018-11-06T02:33:05.768Z,31.30
2018-11-06T02:33:40.433Z,32.10
2018-11-06T02:34:15.117Z,31.27
2018-11-06T02:34:49.656Z,31.03
2018-11-06T02:35:23.997Z,31.73
2018-11-06T02:35:58.409Z,31.97
2018-11-06T02:36:32.788Z,33.93
2018-11-06T02:37:07.157Z,33.20
2018-11-06T02:37:41.557Z,32.80
2018-11-06T02:38:15.915Z,31.97
2018-11-06T02:38:50.302Z,33.13
2018-11-06T02:39:24.673Z,32.70
2018-11-06T02:39:59.023Z,31.83
2018-11-06T02:40:33.406Z,32.77
2018-11-06T02:41:08.076Z,30.50
2018-11-06T02:41:42.480Z,33.50
2018-11-06T02:42:16.841Z,32.93
2018-11-06T02:42:51.216Z,30.07
2018-11-06T02:43:25.572Z,31.00
2018-11-06T02:43:59.931Z,30.60
2018-11-06T02:44:34.391Z,30.37
2018-11-06T02:45:09.453Z,31.37
2018-11-06T02:45:43.817Z,31.57
2018-11-06T02:46:18.616Z,30.80
2018-11-06T02:46:53.006Z,31.13
2018-11-06T02:47:27.390Z,31.17
2018-11-06T02:48:01.831Z,30.43
2018-11-06T02:48:36.312Z,30.70
2018-11-06T02:49:10.692Z,31.20
2018-11-06T02:49:45.079Z,30.80
2018-11-06T02:50:19.650Z,32.40
2018-11-06T02:50:54.006Z,31.73
2018-11-06T02:51:28.764Z,32.17
2018-11-06T02:52:03.187Z,30.17
2018-11-06T02:52:37.597Z,31.70
2018-11-06T02:53:11.972Z,32.90
2018-11-06T02:53:46.341Z,32.63
2018-11-06T02:54:20.675Z,31.83
2018-11-06T02:54:55.063Z,31.33
2018-11-06T02:55:29.430Z,32.47
2018-11-06T02:56:03.936Z,30.73
2018-11-06T02:56:38.443Z,32.47
2018-11-06T02:57:12.823Z,32.90
2018-11-06T02:57:47.356Z,34.30
2018-11-06T02:58:21.748Z,33.40
2018-11-06T02:58:56.117Z,31.63
2018-11-06T02:59:30.478Z,31.63
2018-11-06T03:00:05.341Z,32.87
2018-11-06T03:00:39.825Z,33.83
2018-11-06T03:01:14.216Z,32.10
2018-11-06T03:01:48.652Z,32.40
2018-11-06T03:02:22.988Z,32.20
2018-11-06T03:02:57.372Z,33.30
2018-11-06T03:03:36.928Z,32.77
2018-11-06T03:04:11.337Z,31.93
2018-11-06T03:04:45.703Z,32.93
2018-11-06T03:05:20.213Z,32.93
2018-11-06T03:05:54.552Z,33.77
2018-11-06T03:06:29.059Z,32.43
2018-11-06T03:07:03.571Z,31.73
2018-11-06T03:07:37.996Z,31.87
2018-11-06T03:08:12.384Z,32.47
2018-11-06T03:08:46.751Z,32.50
2018-11-06T03:09:21.125Z,32.17
2018-11-06T03:09:55.502Z,31.47
2018-11-06T03:10:29.951Z,30.83
2018-11-06T03:11:04.830Z,30.47
2018-11-06T03:11:39.400Z,30.23
2018-11-06T03:12:13.784Z,30.83
2018-11-06T03:12:48.156Z,29.10
2018-11-06T03:13:22.550Z,29.50
2018-11-06T03:13:56.904Z,28.37
2018-11-06T03:14:31.262Z,28.67
2018-11-06T03:15:06.948Z,29.53
2018-11-06T03:15:41.288Z,29.40
2018-11-06T03:16:15.631Z,29.37
2018-11-06T03:16:50.100Z,29.27
2018-11-06T03:17:24.607Z,29.90
2018-11-06T03:17:58.936Z,29.17
2018-11-06T03:18:33.384Z,29.63
2018-11-06T03:19:07.745Z,29.97
2018-11-06T03:19:42.116Z,30.10
2018-11-06T03:20:16.456Z,28.80
2018-11-06T03:20:50.828Z,31.20
2018-11-06T03:21:25.201Z,30.83
2018-11-06T03:21:59.553Z,29.17
2018-11-06T03:22:33.920Z,28.27
2018-11-06T03:23:08.272Z,28.70
2018-11-06T03:23:42.658Z,28.07
2018-11-06T03:24:16.980Z,28.63
2018-11-06T03:24:51.353Z,27.73
2018-11-06T03:25:25.771Z,28.83
2018-11-06T03:26:00.160Z,28.97
2018-11-06T03:26:34.729Z,28.73
2018-11-06T03:27:09.179Z,27.20
2018-11-06T03:27:43.667Z,27.10
2018-11-06T03:28:18.059Z,26.73
2018-11-06T03:28:52.394Z,25.17
2018-11-06T03:29:26.704Z,26.70
2018-11-06T03:30:01.424Z,26.50
2018-11-06T03:30:35.748Z,25.03
2018-11-06T03:31:10.135Z,26.40
2018-11-06T03:31:44.645Z,25.07
2018-11-06T03:32:19.023Z,25.97
2018-11-06T03:32:53.387Z,27.33
2018-11-06T03:33:27.727Z,26.20
2018-11-06T03:34:02.227Z,26.73
2018-11-06T03:34:36.643Z,26.13
2018-11-06T03:35:12.329Z,27.27
2018-11-06T03:35:46.674Z,28.70
2018-11-06T03:36:21.040Z,29.10
2018-11-06T03:36:55.431Z,27.10
2018-11-06T03:37:29.806Z,27.30
2018-11-06T03:38:04.647Z,28.17
2018-11-06T03:38:39.066Z,27.93
2018-11-06T03:39:13.575Z,27.73
2018-11-06T03:39:47.945Z,27.73
2018-11-06T03:40:22.332Z,28.43
2018-11-06T03:40:56.778Z,29.10
2018-11-06T03:41:31.124Z,27.33
2018-11-06T03:42:05.737Z,28.63
2018-11-06T03:42:40.960Z,27.43
2018-11-06T03:43:15.318Z,27.07
2018-11-06T03:43:49.660Z,27.80
2018-11-06T03:44:23.999Z,28.73
2018-11-06T03:44:58.344Z,28.60
2018-11-06T03:45:32.714Z,28.27
2018-11-06T03:46:07.135Z,28.17
2018-11-06T03:46:41.652Z,28.63
2018-11-06T03:47:16.037Z,27.00
2018-11-06T03:47:50.444Z,28.50
2018-11-06T03:48:24.759Z,27.43
2018-11-06T03:48:59.249Z,27.83
2018-11-06T03:49:33.573Z,27.80
2018-11-06T03:50:10.446Z,27.30
2018-11-06T03:50:44.849Z,27.47
2018-11-06T03:51:19.236Z,26.07
2018-11-06T03:51:54.231Z,26.67
2018-11-06T03:52:28.574Z,24.70
2018-11-06T03:53:02.932Z,24.67
2018-11-06T03:53:37.396Z,24.00
2018-11-06T03:54:12.233Z,25.80
2018-11-06T03:54:46.559Z,25.23
2018-11-06T03:55:20.893Z,23.40
2018-11-06T03:55:55.328Z,22.87
2018-11-06T03:56:30.191Z,22.13
2018-11-06T03:57:04.584Z,22.57
2018-11-06T03:57:40.048Z,23.77
2018-11-06T03:58:14.524Z,23.17
2018-11-06T03:58:48.930Z,22.83
2018-11-06T03:59:23.300Z,21.90
2018-11-06T03:59:57.668Z,22.53
2018-11-06T04:00:32.009Z,21.77
2018-11-06T04:01:06.803Z,22.47
2018-11-06T04:01:41.185Z,22.80
2018-11-06T04:02:15.570Z,23.07
2018-11-06T04:02:49.904Z,22.63
2018-11-06T04:03:24.259Z,22.47
2018-11-06T04:03:58.625Z,23.17
2018-11-06T04:04:32.958Z,23.57
2018-11-06T04:05:08.508Z,22.67
2018-11-06T04:05:42.935Z,23.77
2018-11-06T04:06:17.271Z,22.33
2018-11-06T04:06:51.601Z,22.63
2018-11-06T04:07:25.962Z,22.77
2018-11-06T04:08:00.287Z,24.63
2018-11-06T04:08:34.621Z,25.67
2018-11-06T04:09:11.620Z,25.97
2018-11-06T04:09:45.948Z,24.60
2018-11-06T04:10:20.280Z,24.67
2018-11-06T04:10:54.615Z,24.07
2018-11-06T04:11:28.953Z,24.83
2018-11-06T04:12:03.305Z,25.90
2018-11-06T04:12:38.038Z,24.90
2018-11-06T04:13:12.387Z,26.90
2018-11-06T04:13:46.851Z,25.60
2018-11-06T04:14:21.461Z,24.57
2018-11-06T04:14:55.902Z,23.87
2018-11-06T04:15:30.266Z,23.70
2018-11-06T04:16:05.386Z,24.30
2018-11-06T04:16:40.284Z,25.30
2018-11-06T04:17:14.625Z,25.10
2018-11-06T04:17:49.056Z,24.83
2018-11-06T04:18:23.413Z,25.50
2018-11-06T04:18:57.809Z,25.43
2018-11-06T04:19:32.190Z,25.00
2018-11-06T04:20:07.318Z,25.33
2018-11-06T04:20:41.748Z,26.67
2018-11-06T04:21:16.103Z,26.40
2018-11-06T04:21:50.440Z,25.33
2018-11-06T04:22:24.920Z,26.20
2018-11-06T04:22:59.293Z,24.27
2018-11-06T04:23:33.800Z,24.77
2018-11-06T04:24:11.565Z,25.67
2018-11-06T04:24:45.929Z,25.10
2018-11-06T04:25:20.440Z,25.60
2018-11-06T04:25:54.769Z,25.90
2018-11-06T04:26:29.092Z,24.83
2018-11-06T04:27:03.509Z,24.97
2018-11-06T04:27:37.868Z,24.67
2018-11-06T04:28:12.242Z,24.87
2018-11-06T04:28:46.602Z,23.97
2018-11-06T04:29:20.975Z,23.73
2018-11-06T04:29:55.308Z,23.47
2018-11-06T04:30:29.647Z,24.23
2018-11-06T04:31:04.503Z,23.90
2018-11-06T04:31:39.513Z,24.37
2018-11-06T04:32:13.865Z,24.47
2018-11-06T04:32:48.209Z,24.17
2018-11-06T04:33:22.720Z,23.73
2018-11-06T04:33:57.055Z,23.83
2018-11-06T04:34:31.397Z,23.47
2018-11-06T04:35:06.666Z,23.00
2018-11-06T04:35:41.084Z,24.43
2018-11-06T04:36:15.478Z,23.60
2018-11-06T04:36:49.836Z,23.60
2018-11-06T04:37:24.218Z,23.03
2018-11-06T04:37:58.560Z,21.83
2018-11-06T04:38:32.896Z,24.17
2018-11-06T04:39:09.205Z,22.90
2018-11-06T04:39:43.800Z,22.53
2018-11-06T04:40:18.108Z,23.20
2018-11-06T04:40:52.432Z,24.63
2018-11-06T04:41:27.104Z,22.77
2018-11-06T04:42:01.495Z,24.37
2018-11-06T04:42:36.004Z,21.60
2018-11-06T04:43:10.545Z,22.97
2018-11-06T04:43:44.932Z,23.40
2018-11-06T04:44:19.321Z,22.83
2018-11-06T04:44:53.893Z,22.90
2018-11-06T04:45:28.280Z,24.33
2018-11-06T04:46:02.668Z,24.33
2018-11-06T04:46:37.000Z,23.10
2018-11-06T04:47:11.561Z,22.80
2018-11-06T04:47:45.930Z,22.70
2018-11-06T04:48:20.255Z,21.73
2018-11-06T04:48:54.696Z,23.00
2018-11-06T04:49:29.159Z,23.57
2018-11-06T04:50:03.678Z,21.80
2018-11-06T04:50:38.271Z,22.93
2018-11-06T04:51:12.792Z,21.77
2018-11-06T04:51:47.274Z,22.83
2018-11-06T04:52:21.632Z,22.20
2018-11-06T04:52:56.028Z,21.90
2018-11-06T04:53:33.492Z,22.47
2018-11-06T04:54:07.886Z,22.47
2018-11-06T04:54:42.427Z,22.47
2018-11-06T04:55:16.777Z,23.67
2018-11-06T04:55:51.136Z,21.63
2018-11-06T04:56:25.518Z,20.83
2018-11-06T04:56:59.852Z,19.80
2018-11-06T04:57:34.183Z,21.80
2018-11-06T04:58:08.625Z,22.03
2018-11-06T04:58:43.050Z,20.53
2018-11-06T04:59:17.388Z,21.27
2018-11-06T04:59:51.740Z,21.00
2018-11-06T05:00:26.188Z,20.10
2018-11-06T05:01:00.727Z,20.43
2018-11-06T05:01:35.056Z,19.93
2018-11-06T05:02:09.521Z,19.93
2018-11-06T05:02:44.466Z,20.10
2018-11-06T05:03:18.855Z,20.30
2018-11-06T05:03:53.200Z,20.67
2018-11-06T05:04:27.613Z,19.80
2018-11-06T05:05:02.001Z,19.23
2018-11-06T05:05:36.372Z,19.87
2018-11-06T05:06:10.732Z,19.93
2018-11-06T05:06:45.100Z,19.07
2018-11-06T05:07:19.756Z,19.67
2018-11-06T05:07:54.086Z,18.87
2018-11-06T05:08:28.422Z,20.00
2018-11-06T05:09:02.836Z,19.33
2018-11-06T05:09:37.160Z,20.63
2018-11-06T05:10:14.075Z,20.03
2018-11-06T05:10:48.463Z,20.33
2018-11-06T05:11:22.915Z,19.30
2018-11-06T05:11:57.249Z,20.10
2018-11-06T05:12:31.590Z,20.47
2018-11-06T05:13:05.983Z,19.70
2018-11-06T05:13:40.521Z,19.63
2018-11-06T05:14:14.954Z,19.37
2018-11-06T05:14:49.510Z,18.23
2018-11-06T05:15:23.917Z,19.30
2018-11-06T05:15:58.261Z,20.40
2018-11-06T05:16:32.652Z,18.93
2018-11-06T05:17:08.194Z,18.90
2018-11-06T05:17:42.727Z,19.50
2018-11-06T05:18:17.109Z,18.43
2018-11-06T05:18:51.539Z,17.43
2018-11-06T05:19:25.868Z,17.60
2018-11-06T05:20:00.266Z,18.00
2018-11-06T05:20:34.593Z,18.20
2018-11-06T05:21:08.961Z,17.20
2018-11-06T05:21:43.516Z,18.30
2018-11-06T05:22:17.909Z,18.00
2018-11-06T05:22:52.248Z,19.13
2018-11-06T05:23:26.616Z,18.10
2018-11-06T05:24:01.011Z,18.40
2018-11-06T05:24:35.398Z,19.63
2018-11-06T05:25:10.312Z,18.83
2018-11-06T05:25:44.760Z,18.80
2018-11-06T05:26:19.096Z,17.83
2018-11-06T05:26:53.509Z,18.90
2018-11-06T05:27:27.856Z,19.47
2018-11-06T05:28:02.386Z,18.57
2018-11-06T05:28:36.739Z,18.90
2018-11-06T05:29:11.176Z,18.73
2018-11-06T05:29:45.737Z,19.30
2018-11-06T05:30:20.143Z,18.33
2018-11-06T05:30:54.507Z,19.53
2018-11-06T05:31:28.873Z,18.87
2018-11-06T05:32:03.233Z,19.73
2018-11-06T05:32:37.803Z,19.17
2018-11-06T05:33:12.391Z,18.90
2018-11-06T05:33:46.808Z,19.37
2018-11-06T05:34:21.161Z,18.77
2018-11-06T05:34:55.634Z,19.83
2018-11-06T05:35:30.038Z,19.20
2018-11-06T05:36:04.768Z,19.23
2018-11-06T05:36:39.536Z,18.63
2018-11-06T05:37:13.913Z,19.27
2018-11-06T05:37:48.316Z,18.73
2018-11-06T05:38:22.694Z,18.70
2018-11-06T05:38:57.117Z,17.13
2018-11-06T05:39:31.889Z,18.03
2018-11-06T05:40:17.620Z,18.07
2018-11-06T05:40:59.786Z,16.93
2018-11-06T05:41:34.194Z,17.03
2018-11-06T05:42:08.683Z,16.93
2018-11-06T05:42:43.167Z,17.37
2018-11-06T05:43:17.614Z,16.57
2018-11-06T05:43:51.984Z,16.70
2018-11-06T05:44:26.520Z,16.87
2018-11-06T05:45:01.222Z,16.73
2018-11-06T05:45:35.631Z,16.87
2018-11-06T05:46:10.170Z,16.53
2018-11-06T05:46:44.585Z,17.03
2018-11-06T05:47:18.964Z,16.37
2018-11-06T05:47:53.304Z,15.87
2018-11-06T05:48:27.711Z,16.77
2018-11-06T05:49:02.041Z,16.27
2018-11-06T05:49:36.397Z,15.33
2018-11-06T05:50:10.828Z,16.60
2018-11-06T05:50:45.417Z,16.77
2018-11-06T05:51:19.880Z,16.13
2018-11-06T05:51:54.215Z,16.77
2018-11-06T05:52:28.573Z,16.50
2018-11-06T05:53:03.012Z,16.73
2018-11-06T05:53:37.592Z,16.53
2018-11-06T05:54:12.004Z,16.63
2018-11-06T05:54:46.439Z,16.70
2018-11-06T05:55:20.808Z,16.43
2018-11-06T05:55:55.173Z,17.10
2018-11-06T05:56:29.512Z,16.13
2018-11-06T05:57:03.941Z,16.27
2018-11-06T05:57:38.349Z,15.97
2018-11-06T05:58:12.800Z,16.60
2018-11-06T05:58:47.167Z,16.23
2018-11-06T05:59:21.552Z,15.83
2018-11-06T05:59:55.921Z,16.40
2018-11-06T06:00:30.260Z,16.23
2018-11-06T06:01:04.667Z,16.50
2018-11-06T06:01:39.057Z,16.10
2018-11-06T06:02:13.790Z,16.40
2018-11-06T06:02:48.259Z,16.30
2018-11-06T06:03:22.613Z,16.33
2018-11-06T06:03:57.042Z,16.07
2018-11-06T06:04:31.384Z,19.17
2018-11-06T06:05:07.540Z,21.80
2018-11-06T06:05:42.007Z,25.80
2018-11-06T06:06:16.559Z,26.77
2018-11-06T06:06:50.915Z,26.70
2018-11-06T06:07:25.352Z,26.07
2018-11-06T06:07:59.683Z,27.63
2018-11-06T06:08:34.012Z,28.63
2018-11-06T06:09:08.484Z,29.40
2018-11-06T06:09:42.876Z,26.60
2018-11-06T06:10:17.318Z,26.97
2018-11-06T06:10:51.735Z,27.50
2018-11-06T06:11:26.445Z,27.77
2018-11-06T06:12:00.772Z,25.40
2018-11-06T06:12:35.361Z,26.37
2018-11-06T06:13:09.869Z,25.83
2018-11-06T06:13:45.788Z,25.73
2018-11-06T06:14:20.173Z,24.50
2018-11-06T06:14:54.498Z,27.37
2018-11-06T06:15:29.224Z,24.47
2018-11-06T06:16:03.584Z,25.53
2018-11-06T06:16:38.012Z,24.03
2018-11-06T06:17:12.625Z,25.20
2018-11-06T06:17:47.176Z,23.17
2018-11-06T06:18:21.604Z,23.83
2018-11-06T06:19:58.882Z,24.13
2018-11-06T06:20:33.197Z,22.43
2018-11-06T06:21:09.589Z,23.37
2018-11-06T06:21:44.033Z,24.90
2018-11-06T06:22:18.463Z,25.67
2018-11-06T06:22:53.003Z,24.37
2018-11-06T06:23:27.321Z,25.73
2018-11-06T06:24:01.663Z,26.43
2018-11-06T06:24:36.032Z,26.43
2018-11-06T06:25:10.570Z,26.13
2018-11-06T06:25:45.004Z,25.00
2018-11-06T06:26:19.432Z,25.67
2018-11-06T06:26:53.785Z,25.03
2018-11-06T06:27:28.134Z,23.03
2018-11-06T06:28:02.471Z,25.00
2018-11-06T06:28:36.916Z,25.33
2018-11-06T06:29:11.525Z,23.97
2018-11-06T06:29:46.049Z,25.73
2018-11-06T06:30:20.463Z,22.97
2018-11-06T06:30:54.834Z,25.50
2018-11-06T06:31:29.222Z,25.67
2018-11-06T06:32:03.543Z,25.03
2018-11-06T06:32:37.988Z,23.63
2018-11-06T06:33:12.412Z,26.00
2018-11-06T06:33:46.819Z,25.30
2018-11-06T06:34:21.302Z,25.13
2018-11-06T06:34:55.847Z,25.37
2018-11-06T06:35:30.372Z,24.63
2018-11-06T06:36:04.728Z,25.87
2018-11-06T06:36:39.256Z,25.17
2018-11-06T06:37:13.715Z,25.37
2018-11-06T06:37:48.109Z,24.73
2018-11-06T06:38:22.461Z,26.03
2018-11-06T06:38:56.915Z,24.87
2018-11-06T06:39:31.375Z,25.17
2018-11-06T06:40:07.674Z,24.43
2018-11-06T06:40:42.199Z,24.47
2018-11-06T06:41:16.881Z,25.67
2018-11-06T06:41:51.260Z,24.63
2018-11-06T06:42:25.720Z,23.67
2018-11-06T06:43:00.054Z,23.53
2018-11-06T06:43:34.406Z,23.10
2018-11-06T06:44:08.822Z,22.10
2018-11-06T06:44:43.283Z,23.93
2018-11-06T06:45:18.867Z,22.33
2018-11-06T06:45:53.245Z,23.83
2018-11-06T06:46:27.745Z,21.63
2018-11-06T06:47:02.292Z,22.60
2018-11-06T06:47:36.669Z,22.53
2018-11-06T06:48:11.225Z,21.67
2018-11-06T06:48:45.840Z,21.53
2018-11-06T06:49:20.173Z,20.83
2018-11-06T06:49:54.526Z,20.93
2018-11-06T06:50:28.972Z,19.30
2018-11-06T06:51:03.405Z,19.23
2018-11-06T06:51:37.785Z,19.20
2018-11-06T06:52:12.356Z,18.03
2018-11-06T06:52:47.468Z,18.23
2018-11-06T06:53:21.926Z,17.70
2018-11-06T06:53:56.337Z,18.27
2018-11-06T06:54:31.215Z,17.80
2018-11-06T06:55:07.319Z,17.67
2018-11-06T06:55:41.978Z,16.57
2018-11-06T06:56:16.428Z,16.53
2018-11-06T06:56:51.062Z,16.50
2018-11-06T06:57:25.690Z,15.27
2018-11-06T06:58:00.097Z,17.10
2018-11-06T06:58:34.462Z,16.80
2018-11-06T06:59:09.885Z,16.53
2018-11-06T06:59:44.661Z,16.73
2018-11-06T07:00:21.313Z,16.87
2018-11-06T07:00:55.662Z,16.77
2018-11-06T07:01:30.032Z,16.23
2018-11-06T07:02:04.881Z,14.87
2018-11-06T07:02:39.818Z,16.57
2018-11-06T07:03:14.436Z,15.97
2018-11-06T07:03:48.828Z,15.47
2018-11-06T07:04:23.171Z,16.03
2018-11-06T07:04:57.519Z,16.10
2018-11-06T07:05:31.899Z,17.13
2018-11-06T07:06:06.265Z,15.20
2018-11-06T07:06:40.705Z,15.47
2018-11-06T07:07:15.117Z,15.83
2018-11-06T07:07:49.498Z,15.43
2018-11-06T07:08:24.000Z,15.37
2018-11-06T07:08:58.360Z,14.67
2018-11-06T07:09:32.721Z,15.80
2018-11-06T07:10:09.813Z,15.70
2018-11-06T07:10:44.237Z,15.03
2018-11-06T07:11:19.133Z,15.20
2018-11-06T07:11:53.505Z,16.30
2018-11-06T07:12:28.018Z,15.53
2018-11-06T07:13:02.371Z,15.17
2018-11-06T07:13:36.940Z,15.43
2018-11-06T07:14:11.431Z,15.43
2018-11-06T07:14:45.889Z,15.07
2018-11-06T07:15:21.377Z,14.53
2018-11-06T07:15:55.763Z,15.97
2018-11-06T07:16:30.151Z,15.73
2018-11-06T07:17:05.094Z,15.70
2018-11-06T07:17:39.652Z,15.97
2018-11-06T07:18:14.116Z,16.20
2018-11-06T07:18:48.593Z,15.47
2018-11-06T07:19:23.048Z,16.00
2018-11-06T07:19:57.396Z,15.27
2018-11-06T07:20:31.793Z,16.63
2018-11-06T07:21:06.341Z,15.50
2018-11-06T07:21:40.793Z,14.90
2018-11-06T07:22:15.340Z,14.90
2018-11-06T07:22:49.768Z,15.20
2018-11-06T07:23:24.218Z,15.40
2018-11-06T07:23:58.584Z,16.00
2018-11-06T07:24:32.897Z,15.33
2018-11-06T07:25:08.538Z,15.10
2018-11-06T07:25:42.964Z,15.17
2018-11-06T07:26:17.325Z,15.33
2018-11-06T07:26:51.668Z,14.77
2018-11-06T07:27:26.413Z,16.30
2018-11-06T07:28:00.910Z,15.23
2018-11-06T07:28:35.272Z,14.93